sensor_id;sensor_type;location;lat;lon;timestamp;pressure;altitude;pressure_sealevel;temperature;humidity
3428;BME280;1727;42.624;23.406;2023-02-13T00:01:14;96602.53;;;1.33;80.09
3428;BME280;1727;42.624;23.406;2023-02-13T00:03:40;96603.31;;;1.37;80.16
3428;BME280;1727;42.624;23.406;2023-02-13T00:06:07;96604.28;;;1.33;79.91
3428;BME280;1727;42.624;23.406;2023-02-13T00:08:35;96608.59;;;1.32;79.91
3428;BME280;1727;42.624;23.406;2023-02-13T00:11:01;96606.03;;;1.31;79.96
3428;BME280;1727;42.624;23.406;2023-02-13T00:13:29;96613.03;;;1.27;79.80
3428;BME280;1727;42.624;23.406;2023-02-13T00:15:57;96607.91;;;1.24;79.79
3428;BME280;1727;42.624;23.406;2023-02-13T00:18:25;96606.28;;;1.20;80.07
3428;BME280;1727;42.624;23.406;2023-02-13T00:20:59;96610.66;;;1.16;80.08
3428;BME280;1727;42.624;23.406;2023-02-13T00:23:26;96615.00;;;1.16;80.52
3428;BME280;1727;42.624;23.406;2023-02-13T00:25:53;96621.84;;;1.17;80.73
3428;BME280;1727;42.624;23.406;2023-02-13T00:28:19;96612.38;;;1.17;81.19
3428;BME280;1727;42.624;23.406;2023-02-13T00:30:51;96614.91;;;1.19;81.21
3428;BME280;1727;42.624;23.406;2023-02-13T00:33:17;96614.91;;;1.19;80.69
3428;BME280;1727;42.624;23.406;2023-02-13T00:35:44;96616.59;;;1.21;80.49
3428;BME280;1727;42.624;23.406;2023-02-13T00:38:11;96618.34;;;1.19;80.40
3428;BME280;1727;42.624;23.406;2023-02-13T00:40:38;96622.75;;;1.16;80.57
3428;BME280;1727;42.624;23.406;2023-02-13T00:43:04;96617.59;;;1.13;80.54
3428;BME280;1727;42.624;23.406;2023-02-13T00:45:31;96621.94;;;1.12;80.68
3428;BME280;1727;42.624;23.406;2023-02-13T00:47:59;96618.59;;;1.07;80.33
3428;BME280;1727;42.624;23.406;2023-02-13T00:50:26;96620.34;;;1.05;80.22
3428;BME280;1727;42.624;23.406;2023-02-13T00:52:53;96628.09;;;1.05;80.24
3428;BME280;1727;42.624;23.406;2023-02-13T00:55:19;96632.47;;;1.03;79.89
3428;BME280;1727;42.624;23.406;2023-02-13T00:57:46;96631.69;;;0.98;79.96
3428;BME280;1727;42.624;23.406;2023-02-13T01:00:14;96628.22;;;0.99;79.64
3428;BME280;1727;42.624;23.406;2023-02-13T01:02:41;96633.47;;;0.96;79.61
3428;BME280;1727;42.624;23.406;2023-02-13T01:05:09;96638.63;;;0.96;79.81
3428;BME280;1727;42.624;23.406;2023-02-13T01:07:36;96633.47;;;0.96;80.47
3428;BME280;1727;42.624;23.406;2023-02-13T01:10:03;96636.88;;;0.98;80.71
3428;BME280;1727;42.624;23.406;2023-02-13T01:12:30;96634.19;;;1.03;80.94
3428;BME280;1727;42.624;23.406;2023-02-13T01:14:57;96616.00;;;1.07;80.69
3428;BME280;1727;42.624;23.406;2023-02-13T01:17:24;96625.53;;;1.05;80.33
3428;BME280;1727;42.624;23.406;2023-02-13T01:19:51;96622.88;;;1.08;80.76
3428;BME280;1727;42.624;23.406;2023-02-13T01:22:19;96625.47;;;1.08;81.14
3428;BME280;1727;42.624;23.406;2023-02-13T01:24:46;96626.28;;;1.10;81.48
3428;BME280;1727;42.624;23.406;2023-02-13T01:27:12;96631.38;;;1.13;81.44
3428;BME280;1727;42.624;23.406;2023-02-13T01:29:39;96628.84;;;1.12;80.88
3428;BME280;1727;42.624;23.406;2023-02-13T01:32:06;96625.38;;;1.11;80.84
3428;BME280;1727;42.624;23.406;2023-02-13T01:34:33;96629.63;;;1.15;80.62
3428;BME280;1727;42.624;23.406;2023-02-13T01:36:59;96632.19;;;1.17;80.56
3428;BME280;1727;42.624;23.406;2023-02-13T01:39:28;96636.44;;;1.19;80.40
3428;BME280;1727;42.624;23.406;2023-02-13T01:41:54;96639.91;;;1.20;79.81
3428;BME280;1727;42.624;23.406;2023-02-13T01:44:47;96632.91;;;1.23;82.68
3428;BME280;1727;42.624;23.406;2023-02-13T01:47:16;96636.34;;;1.24;81.79
3428;BME280;1727;42.624;23.406;2023-02-13T01:49:45;96633.88;;;1.19;81.38
3428;BME280;1727;42.624;23.406;2023-02-13T01:52:13;96638.09;;;1.23;80.90
3428;BME280;1727;42.624;23.406;2023-02-13T01:54:43;96643.31;;;1.20;80.55
3428;BME280;1727;42.624;23.406;2023-02-13T01:57:13;96646.78;;;1.19;80.53
3428;BME280;1727;42.624;23.406;2023-02-13T01:59:47;96643.28;;;1.22;80.37
3428;BME280;1727;42.624;23.406;2023-02-13T02:02:14;96653.72;;;1.17;81.16
3428;BME280;1727;42.624;23.406;2023-02-13T02:04:42;96643.41;;;1.17;81.76
3428;BME280;1727;42.624;23.406;2023-02-13T02:07:14;96645.94;;;1.19;81.20
3428;BME280;1727;42.624;23.406;2023-02-13T02:09:45;96644.25;;;1.18;81.77
3428;BME280;1727;42.624;23.406;2023-02-13T02:12:19;96637.38;;;1.17;81.69
3428;BME280;1727;42.624;23.406;2023-02-13T02:14:48;96637.41;;;1.14;81.35
3428;BME280;1727;42.624;23.406;2023-02-13T02:17:16;96634.78;;;1.15;81.32
3428;BME280;1727;42.624;23.406;2023-02-13T02:19:48;96629.47;;;1.23;80.97
3428;BME280;1727;42.624;23.406;2023-02-13T02:25:53;96633.41;;;1.41;80.92
3428;BME280;1727;42.624;23.406;2023-02-13T02:28:55;96636.84;;;1.41;80.45
3428;BME280;1727;42.624;23.406;2023-02-13T02:31:49;96646.41;;;1.38;81.17
3428;BME280;1727;42.624;23.406;2023-02-13T02:34:30;96641.28;;;1.35;82.18
3428;BME280;1727;42.624;23.406;2023-02-13T02:37:10;96645.44;;;1.42;82.13
3428;BME280;1727;42.624;23.406;2023-02-13T02:39:45;96653.22;;;1.42;82.05
3428;BME280;1727;42.624;23.406;2023-02-13T02:42:23;96647.94;;;1.48;81.95
3428;BME280;1727;42.624;23.406;2023-02-13T02:45:01;96653.81;;;1.54;82.25
3428;BME280;1727;42.624;23.406;2023-02-13T02:47:41;96647.69;;;1.59;82.63
3428;BME280;1727;42.624;23.406;2023-02-13T02:50:33;96659.78;;;1.58;82.54
3428;BME280;1727;42.624;23.406;2023-02-13T02:53:10;96661.56;;;1.56;82.35
3428;BME280;1727;42.624;23.406;2023-02-13T02:55:44;96665.69;;;1.63;82.63
3428;BME280;1727;42.624;23.406;2023-02-13T02:58:18;96668.97;;;1.71;81.94
3428;BME280;1727;42.624;23.406;2023-02-13T03:01:06;96674.09;;;1.74;81.33
3428;BME280;1727;42.624;23.406;2023-02-13T03:03:59;96675.84;;;1.74;81.37
3428;BME280;1727;42.624;23.406;2023-02-13T03:06:46;96672.44;;;1.70;80.73
3428;BME280;1727;42.624;23.406;2023-02-13T03:09:19;96668.09;;;1.72;80.79
3428;BME280;1727;42.624;23.406;2023-02-13T03:12:05;96668.97;;;1.71;80.96
3428;BME280;1727;42.624;23.406;2023-02-13T03:14:51;96665.69;;;1.63;81.44
3428;BME280;1727;42.624;23.406;2023-02-13T03:17:18;96664.13;;;1.56;80.79
3428;BME280;1727;42.624;23.406;2023-02-13T03:20:13;96660.69;;;1.55;80.87
3428;BME280;1727;42.624;23.406;2023-02-13T03:23:16;96666.75;;;1.54;81.22
3428;BME280;1727;42.624;23.406;2023-02-13T03:26:22;96661.63;;;1.53;81.76
3428;BME280;1727;42.624;23.406;2023-02-13T03:29:05;96665.09;;;1.52;82.37
3428;BME280;1727;42.624;23.406;2023-02-13T03:31:56;96672.88;;;1.50;82.63
3428;BME280;1727;42.624;23.406;2023-02-13T03:34:30;96667.69;;;1.52;82.67
3428;BME280;1727;42.624;23.406;2023-02-13T03:37:24;96671.19;;;1.49;82.41
3428;BME280;1727;42.624;23.406;2023-02-13T03:40:12;96682.41;;;1.48;82.23
3428;BME280;1727;42.624;23.406;2023-02-13T03:42:44;96678.13;;;1.47;82.04
3428;BME280;1727;42.624;23.406;2023-02-13T03:45:19;96673.88;;;1.43;81.37
3428;BME280;1727;42.624;23.406;2023-02-13T03:48:06;96673.91;;;1.42;81.19
3428;BME280;1727;42.624;23.406;2023-02-13T03:50:56;96673.09;;;1.40;81.24
3428;BME280;1727;42.624;23.406;2023-02-13T03:53:26;96674.94;;;1.33;82.35
3428;BME280;1727;42.624;23.406;2023-02-13T03:55:55;96670.72;;;1.29;82.80
3428;BME280;1727;42.624;23.406;2023-02-13T03:58:41;96667.16;;;1.35;82.79
3428;BME280;1727;42.624;23.406;2023-02-13T04:01:30;96672.25;;;1.38;82.63
3428;BME280;1727;42.624;23.406;2023-02-13T04:04:02;96663.72;;;1.34;82.53
3428;BME280;1727;42.624;23.406;2023-02-13T04:06:33;96671.41;;;1.37;83.44
3428;BME280;1727;42.624;23.406;2023-02-13T04:09:03;96667.09;;;1.38;84.22
3428;BME280;1727;42.624;23.406;2023-02-13T04:11:33;96666.94;;;1.47;84.22
3428;BME280;1727;42.624;23.406;2023-02-13T04:14:06;96666.72;;;1.56;84.39
3428;BME280;1727;42.624;23.406;2023-02-13T04:16:35;96669.28;;;1.58;83.96
3428;BME280;1727;42.624;23.406;2023-02-13T04:19:04;96678.66;;;1.62;83.63
3428;BME280;1727;42.624;23.406;2023-02-13T04:21:32;96677.72;;;1.66;83.03
3428;BME280;1727;42.624;23.406;2023-02-13T04:23:59;96675.88;;;1.71;82.67
3428;BME280;1727;42.624;23.406;2023-02-13T04:26:32;96675.09;;;1.67;81.89
3428;BME280;1727;42.624;23.406;2023-02-13T04:29:03;96672.66;;;1.61;83.03
3428;BME280;1727;42.624;23.406;2023-02-13T04:31:30;96678.84;;;1.54;82.74
3428;BME280;1727;42.624;23.406;2023-02-13T04:33:57;96676.28;;;1.52;82.42
3428;BME280;1727;42.624;23.406;2023-02-13T04:36:23;96680.69;;;1.49;81.47
3428;BME280;1727;42.624;23.406;2023-02-13T04:38:50;96681.63;;;1.43;80.96
3428;BME280;1727;42.624;23.406;2023-02-13T04:41:17;96672.19;;;1.41;80.55
3428;BME280;1727;42.624;23.406;2023-02-13T04:43:45;96668.84;;;1.36;80.62
3428;BME280;1727;42.624;23.406;2023-02-13T04:46:13;96672.59;;;1.22;81.28
3428;BME280;1727;42.624;23.406;2023-02-13T04:48:40;96679.53;;;1.20;81.01
3428;BME280;1727;42.624;23.406;2023-02-13T04:51:06;96684.84;;;1.11;81.65
3428;BME280;1727;42.624;23.406;2023-02-13T04:53:33;96672.00;;;1.07;82.39
3428;BME280;1727;42.624;23.406;2023-02-13T04:56:00;96680.47;;;1.16;83.24
3428;BME280;1727;42.624;23.406;2023-02-13T04:58:27;96690.81;;;1.16;83.70
3428;BME280;1727;42.624;23.406;2023-02-13T05:00:55;96691.84;;;1.06;83.72
3428;BME280;1727;42.624;23.406;2023-02-13T05:03:22;96695.38;;;1.02;84.20
3428;BME280;1727;42.624;23.406;2023-02-13T05:05:48;96687.72;;;0.98;84.63
3428;BME280;1727;42.624;23.406;2023-02-13T05:08:15;96694.63;;;0.96;84.26
3428;BME280;1727;42.624;23.406;2023-02-13T05:10:42;96696.50;;;0.86;84.56
3428;BME280;1727;42.624;23.406;2023-02-13T05:13:09;96699.22;;;0.80;84.29
3428;BME280;1727;42.624;23.406;2023-02-13T05:15:36;96699.25;;;0.78;84.76
3428;BME280;1727;42.624;23.406;2023-02-13T05:18:04;96700.06;;;0.80;84.70
3428;BME280;1727;42.624;23.406;2023-02-13T05:20:31;96702.69;;;0.79;84.90
3428;BME280;1727;42.624;23.406;2023-02-13T05:22:58;96702.72;;;0.76;85.91
3428;BME280;1727;42.624;23.406;2023-02-13T05:25:42;96707.06;;;0.75;86.62
3428;BME280;1727;42.624;23.406;2023-02-13T05:28:09;96704.38;;;0.80;86.96
3428;BME280;1727;42.624;23.406;2023-02-13T05:30:50;96716.44;;;0.79;87.32
3428;BME280;1727;42.624;23.406;2023-02-13T05:33:18;96709.56;;;0.80;86.93
3428;BME280;1727;42.624;23.406;2023-02-13T05:35:45;96715.63;;;0.77;86.71
3428;BME280;1727;42.624;23.406;2023-02-13T05:38:11;96712.19;;;0.77;87.30
3428;BME280;1727;42.624;23.406;2023-02-13T05:40:38;96712.31;;;0.69;87.75
3428;BME280;1727;42.624;23.406;2023-02-13T05:43:05;96714.00;;;0.72;87.57
3428;BME280;1727;42.624;23.406;2023-02-13T05:45:32;96717.50;;;0.69;87.25
3428;BME280;1727;42.624;23.406;2023-02-13T05:47:58;96714.16;;;0.64;87.12
3428;BME280;1727;42.624;23.406;2023-02-13T05:50:27;96720.94;;;0.70;86.33
3428;BME280;1727;42.624;23.406;2023-02-13T05:52:53;96721.97;;;0.59;85.92
3428;BME280;1727;42.624;23.406;2023-02-13T05:55:20;96721.91;;;0.63;85.99
3428;BME280;1727;42.624;23.406;2023-02-13T05:57:47;96727.06;;;0.64;85.70
3428;BME280;1727;42.624;23.406;2023-02-13T06:00:15;96725.31;;;0.66;85.76
3428;BME280;1727;42.624;23.406;2023-02-13T06:02:42;96729.63;;;0.66;85.46
3428;BME280;1727;42.624;23.406;2023-02-13T06:05:08;96728.78;;;0.64;85.57
3428;BME280;1727;42.624;23.406;2023-02-13T06:07:36;96729.53;;;0.70;86.58
3428;BME280;1727;42.624;23.406;2023-02-13T06:10:04;96734.63;;;0.75;86.39
3428;BME280;1727;42.624;23.406;2023-02-13T06:12:31;96738.81;;;0.80;85.19
3428;BME280;1727;42.624;23.406;2023-02-13T06:14:58;96733.72;;;0.77;85.26
3428;BME280;1727;42.624;23.406;2023-02-13T06:17:25;96733.72;;;0.77;85.10
3428;BME280;1727;42.624;23.406;2023-02-13T06:19:52;96738.78;;;0.82;85.79
3428;BME280;1727;42.624;23.406;2023-02-13T06:22:18;96740.44;;;0.86;86.44
3428;BME280;1727;42.624;23.406;2023-02-13T06:24:47;96745.53;;;0.92;86.32
3428;BME280;1727;42.624;23.406;2023-02-13T06:27:13;96743.81;;;0.91;86.06
3428;BME280;1727;42.624;23.406;2023-02-13T06:29:40;96749.81;;;0.93;86.01
3428;BME280;1727;42.624;23.406;2023-02-13T06:32:07;96745.47;;;0.95;85.99
3428;BME280;1727;42.624;23.406;2023-02-13T06:34:34;96749.69;;;1.01;86.27
3428;BME280;1727;42.624;23.406;2023-02-13T06:37:00;96748.75;;;1.05;86.35
3428;BME280;1727;42.624;23.406;2023-02-13T06:39:27;96743.38;;;1.15;87.10
3428;BME280;1727;42.624;23.406;2023-02-13T06:41:55;96744.16;;;1.20;86.41
3428;BME280;1727;42.624;23.406;2023-02-13T06:44:22;96751.75;;;1.30;86.64
3428;BME280;1727;42.624;23.406;2023-02-13T06:46:49;96741.22;;;1.39;87.38
3428;BME280;1727;42.624;23.406;2023-02-13T06:49:15;96750.47;;;1.50;86.82
3428;BME280;1727;42.624;23.406;2023-02-13T06:51:42;96743.38;;;1.60;86.46
3428;BME280;1727;42.624;23.406;2023-02-13T06:54:09;96745.72;;;1.72;86.75
3428;BME280;1727;42.624;23.406;2023-02-13T06:56:38;96747.22;;;1.84;85.42
3428;BME280;1727;42.624;23.406;2023-02-13T06:59:06;96738.31;;;1.96;83.98
3428;BME280;1727;42.624;23.406;2023-02-13T07:01:33;96743.38;;;2.02;83.02
3428;BME280;1727;42.624;23.406;2023-02-13T07:04:00;96751.13;;;2.03;82.31
3428;BME280;1727;42.624;23.406;2023-02-13T07:06:26;96745.81;;;2.09;82.51
3428;BME280;1727;42.624;23.406;2023-02-13T07:08:53;96746.81;;;2.04;82.86
3428;BME280;1727;42.624;23.406;2023-02-13T07:11:22;96743.31;;;2.05;83.06
3428;BME280;1727;42.624;23.406;2023-02-13T07:13:50;96745.94;;;2.03;83.23
3428;BME280;1727;42.624;23.406;2023-02-13T07:16:18;96737.16;;;2.10;83.08
3428;BME280;1727;42.624;23.406;2023-02-13T07:18:45;96745.56;;;2.20;82.80
3428;BME280;1727;42.624;23.406;2023-02-13T07:21:12;96750.63;;;2.25;83.70
3428;BME280;1727;42.624;23.406;2023-02-13T07:23:38;96747.03;;;2.30;83.23
3428;BME280;1727;42.624;23.406;2023-02-13T07:26:05;96748.75;;;2.31;82.45
3428;BME280;1727;42.624;23.406;2023-02-13T07:28:32;96745.34;;;2.29;81.99
3428;BME280;1727;42.624;23.406;2023-02-13T07:31:03;96747.84;;;2.34;82.44
3428;BME280;1727;42.624;23.406;2023-02-13T07:33:32;96757.28;;;2.36;82.70
3428;BME280;1727;42.624;23.406;2023-02-13T07:35:58;96758.03;;;2.41;82.73
3428;BME280;1727;42.624;23.406;2023-02-13T07:38:28;96763.06;;;2.47;83.62
3428;BME280;1727;42.624;23.406;2023-02-13T07:40:57;96762.84;;;2.57;83.53
3428;BME280;1727;42.624;23.406;2023-02-13T07:43:24;96750.69;;;2.60;83.02
3428;BME280;1727;42.624;23.406;2023-02-13T07:45:50;96750.59;;;2.65;82.26
3428;BME280;1727;42.624;23.406;2023-02-13T07:48:20;96754.81;;;2.69;82.22
3428;BME280;1727;42.624;23.406;2023-02-13T07:50:48;96755.69;;;2.68;82.66
3428;BME280;1727;42.624;23.406;2023-02-13T07:53:15;96750.19;;;2.80;83.01
3428;BME280;1727;42.624;23.406;2023-02-13T07:55:41;96759.44;;;2.92;83.41
3428;BME280;1727;42.624;23.406;2023-02-13T07:58:08;96756.72;;;2.96;82.15
3428;BME280;1727;42.624;23.406;2023-02-13T08:00:35;96756.56;;;3.02;81.29
3428;BME280;1727;42.624;23.406;2023-02-13T08:03:02;96744.31;;;3.07;80.47
3428;BME280;1727;42.624;23.406;2023-02-13T08:05:30;96754.66;;;3.09;80.98
3428;BME280;1727;42.624;23.406;2023-02-13T08:07:59;96759.78;;;3.10;80.50
3428;BME280;1727;42.624;23.406;2023-02-13T08:10:26;96749.34;;;3.14;80.81
3428;BME280;1727;42.624;23.406;2023-02-13T08:13:11;96751.69;;;3.24;80.90
3428;BME280;1727;42.624;23.406;2023-02-13T08:15:38;96740.16;;;3.34;79.55
3428;BME280;1727;42.624;23.406;2023-02-13T08:18:05;96748.53;;;3.44;79.87
3428;BME280;1727;42.624;23.406;2023-02-13T08:20:32;96748.63;;;3.41;79.99
3428;BME280;1727;42.624;23.406;2023-02-13T08:23:03;96745.78;;;3.50;80.19
3428;BME280;1727;42.624;23.406;2023-02-13T08:25:30;96756.91;;;3.55;80.29
3428;BME280;1727;42.624;23.406;2023-02-13T08:27:57;96751.53;;;3.61;79.62
3428;BME280;1727;42.624;23.406;2023-02-13T08:30:23;96746.16;;;3.67;79.50
3428;BME280;1727;42.624;23.406;2023-02-13T08:32:51;96747.69;;;3.74;79.18
3428;BME280;1727;42.624;23.406;2023-02-13T08:35:18;96741.34;;;3.85;79.89
3428;BME280;1727;42.624;23.406;2023-02-13T08:37:45;96748.81;;;3.95;79.46
3428;BME280;1727;42.624;23.406;2023-02-13T08:40:13;96750.47;;;3.98;79.82
3428;BME280;1727;42.624;23.406;2023-02-13T08:42:40;96742.69;;;3.98;79.07
3428;BME280;1727;42.624;23.406;2023-02-13T08:45:08;96745.28;;;3.98;79.00
3428;BME280;1727;42.624;23.406;2023-02-13T08:47:36;96741.84;;;3.97;78.78
3428;BME280;1727;42.624;23.406;2023-02-13T08:50:05;96746.84;;;4.05;79.59
3428;BME280;1727;42.624;23.406;2023-02-13T08:52:32;96746.00;;;4.03;79.61
3428;BME280;1727;42.624;23.406;2023-02-13T08:54:59;96744.28;;;4.02;78.91
3428;BME280;1727;42.624;23.406;2023-02-13T08:57:29;96744.63;;;3.91;80.10
3428;BME280;1727;42.624;23.406;2023-02-13T08:59:56;96745.28;;;3.98;80.83
3428;BME280;1727;42.624;23.406;2023-02-13T09:02:23;96742.63;;;3.99;81.23
3428;BME280;1727;42.624;23.406;2023-02-13T09:04:50;96744.28;;;4.02;81.36
3428;BME280;1727;42.624;23.406;2023-02-13T09:07:16;96741.00;;;3.97;81.22
3428;BME280;1727;42.624;23.406;2023-02-13T09:09:43;96743.59;;;3.97;80.29
3428;BME280;1727;42.624;23.406;2023-02-13T09:12:10;96747.78;;;4.01;80.50
3428;BME280;1727;42.624;23.406;2023-02-13T09:14:39;96744.19;;;3.76;81.58
3428;BME280;1727;42.624;23.406;2023-02-13T09:17:06;96752.72;;;3.81;80.70
3428;BME280;1727;42.624;23.406;2023-02-13T09:19:33;96749.31;;;3.79;80.64
3428;BME280;1727;42.624;23.406;2023-02-13T09:21:59;96738.03;;;3.80;80.46
3428;BME280;1727;42.624;23.406;2023-02-13T09:24:26;96734.19;;;3.93;81.35
3428;BME280;1727;42.624;23.406;2023-02-13T09:26:53;96731.41;;;3.99;79.95
3428;BME280;1727;42.624;23.406;2023-02-13T09:29:21;96728.38;;;4.14;79.23
3428;BME280;1727;42.624;23.406;2023-02-13T09:31:49;96732.75;;;4.12;79.13
3428;BME280;1727;42.624;23.406;2023-02-13T09:34:15;96730.41;;;4.03;79.73
3428;BME280;1727;42.624;23.406;2023-02-13T09:36:42;96720.25;;;3.95;80.59
3428;BME280;1727;42.624;23.406;2023-02-13T09:39:09;96722.41;;;4.11;80.08
3428;BME280;1727;42.624;23.406;2023-02-13T09:41:38;96723.88;;;4.19;79.64
3428;BME280;1727;42.624;23.406;2023-02-13T09:44:12;96715.88;;;4.25;79.86
3428;BME280;1727;42.624;23.406;2023-02-13T09:47:00;96716.59;;;4.30;78.78
3428;BME280;1727;42.624;23.406;2023-02-13T09:49:32;96708.84;;;4.29;78.78
3428;BME280;1727;42.624;23.406;2023-02-13T09:52:00;96712.03;;;4.39;78.90
3428;BME280;1727;42.624;23.406;2023-02-13T09:54:27;96707.22;;;4.53;79.40
3428;BME280;1727;42.624;23.406;2023-02-13T09:56:58;96706.75;;;4.68;77.16
3428;BME280;1727;42.624;23.406;2023-02-13T09:59:38;96703.13;;;4.98;77.75
3428;BME280;1727;42.624;23.406;2023-02-13T10:02:22;96706.41;;;5.04;75.88
3428;BME280;1727;42.624;23.406;2023-02-13T10:05:03;96695.28;;;5.00;75.77
3428;BME280;1727;42.624;23.406;2023-02-13T10:07:39;96694.16;;;5.07;76.58
3428;BME280;1727;42.624;23.406;2023-02-13T10:10:17;96697.81;;;5.02;76.11
3428;BME280;1727;42.624;23.406;2023-02-13T10:13:00;96687.78;;;5.16;75.92
3428;BME280;1727;42.624;23.406;2023-02-13T10:15:34;96686.75;;;5.21;76.11
3428;BME280;1727;42.624;23.406;2023-02-13T10:18:09;96689.47;;;5.17;75.30
3428;BME280;1727;42.624;23.406;2023-02-13T10:20:41;96677.97;;;5.24;75.06
3428;BME280;1727;42.624;23.406;2023-02-13T10:23:17;96678.66;;;5.29;74.63
3428;BME280;1727;42.624;23.406;2023-02-13T10:25:50;96668.13;;;5.32;75.17
3428;BME280;1727;42.624;23.406;2023-02-13T10:28:28;96663.38;;;5.43;74.25
3428;BME280;1727;42.624;23.406;2023-02-13T10:31:00;96655.56;;;5.43;74.17
3428;BME280;1727;42.624;23.406;2023-02-13T10:33:33;96658.81;;;5.50;74.08
3428;BME280;1727;42.624;23.406;2023-02-13T10:36:10;96654.78;;;5.65;74.43
3428;BME280;1727;42.624;23.406;2023-02-13T10:38:43;96645.94;;;5.69;72.95
3428;BME280;1727;42.624;23.406;2023-02-13T10:41:23;96641.41;;;5.74;74.02
3428;BME280;1727;42.624;23.406;2023-02-13T10:44:02;96636.00;;;5.80;72.98
3428;BME280;1727;42.624;23.406;2023-02-13T10:46:41;96634.25;;;5.80;73.57
3428;BME280;1727;42.624;23.406;2023-02-13T10:49:36;96628.91;;;5.83;71.73
3428;BME280;1727;42.624;23.406;2023-02-13T10:52:17;96626.94;;;5.90;71.24
3428;BME280;1727;42.624;23.406;2023-02-13T10:55:09;96627.66;;;5.94;71.71
3428;BME280;1727;42.624;23.406;2023-02-13T10:57:56;96618.63;;;5.80;72.31
3428;BME280;1727;42.624;23.406;2023-02-13T11:00:29;96618.56;;;5.82;73.36
3428;BME280;1727;42.624;23.406;2023-02-13T11:02:58;96617.31;;;5.69;72.06
3428;BME280;1727;42.624;23.406;2023-02-13T11:05:30;96607.91;;;5.65;71.44
3428;BME280;1727;42.624;23.406;2023-02-13T11:07:57;96611.19;;;5.70;73.13
3428;BME280;1727;42.624;23.406;2023-02-13T11:10:26;96602.88;;;5.83;72.90
3428;BME280;1727;42.624;23.406;2023-02-13T11:12:53;96595.69;;;5.90;71.50
3428;BME280;1727;42.624;23.406;2023-02-13T11:15:24;96601.50;;;5.97;71.00
3428;BME280;1727;42.624;23.406;2023-02-13T11:17:54;96585.56;;;6.04;70.99
3428;BME280;1727;42.624;23.406;2023-02-13T11:20:29;96591.19;;;6.15;72.55
3428;BME280;1727;42.624;23.406;2023-02-13T11:23:16;96579.63;;;6.22;72.11
3428;BME280;1727;42.624;23.406;2023-02-13T11:25:54;96574.72;;;6.15;71.57
3428;BME280;1727;42.624;23.406;2023-02-13T11:28:22;96565.97;;;6.16;71.91
3428;BME280;1727;42.624;23.406;2023-02-13T11:30:49;96565.72;;;6.22;71.48
3428;BME280;1727;42.624;23.406;2023-02-13T11:33:21;96559.16;;;6.34;70.99
3428;BME280;1727;42.624;23.406;2023-02-13T11:36:03;96558.72;;;6.44;71.02
3428;BME280;1727;42.624;23.406;2023-02-13T11:38:30;96547.44;;;6.44;70.00
3428;BME280;1727;42.624;23.406;2023-02-13T11:41:05;96548.66;;;6.35;69.81
3428;BME280;1727;42.624;23.406;2023-02-13T11:43:34;96543.28;;;6.40;70.00
3428;BME280;1727;42.624;23.406;2023-02-13T11:46:05;96542.88;;;6.49;70.51
3428;BME280;1727;42.624;23.406;2023-02-13T11:48:33;96541.84;;;6.53;68.93
3428;BME280;1727;42.624;23.406;2023-02-13T11:51:02;96523.38;;;6.58;69.86
3428;BME280;1727;42.624;23.406;2023-02-13T11:53:31;96525.53;;;6.68;69.36
3428;BME280;1727;42.624;23.406;2023-02-13T11:56:05;96526.13;;;6.75;68.75
3428;BME280;1727;42.624;23.406;2023-02-13T11:58:33;96510.41;;;6.76;68.04
3428;BME280;1727;42.624;23.406;2023-02-13T12:01:21;96507.94;;;6.73;67.67
3428;BME280;1727;42.624;23.406;2023-02-13T12:04:01;96497.63;;;6.70;67.94
3428;BME280;1727;42.624;23.406;2023-02-13T12:06:31;96499.19;;;6.74;66.93
3428;BME280;1727;42.624;23.406;2023-02-13T12:09:07;96478.97;;;6.59;65.68
3428;BME280;1727;42.624;23.406;2023-02-13T12:11:41;96490.66;;;6.71;66.82
3428;BME280;1727;42.624;23.406;2023-02-13T12:14:13;96496.78;;;6.70;67.23
3428;BME280;1727;42.624;23.406;2023-02-13T12:16:43;96498.97;;;6.79;66.79
3428;BME280;1727;42.624;23.406;2023-02-13T12:19:13;96495.81;;;6.72;65.43
3428;BME280;1727;42.624;23.406;2023-02-13T12:22:03;96490.16;;;6.81;66.21
3428;BME280;1727;42.624;23.406;2023-02-13T12:24:46;96490.16;;;6.81;64.33
3428;BME280;1727;42.624;23.406;2023-02-13T12:27:19;96471.13;;;6.79;64.48
3428;BME280;1727;42.624;23.406;2023-02-13T12:29:59;96484.19;;;6.79;64.89
3428;BME280;1727;42.624;23.406;2023-02-13T12:32:40;96476.97;;;6.84;64.33
3428;BME280;1727;42.624;23.406;2023-02-13T12:35:34;96475.69;;;6.95;64.23
3428;BME280;1727;42.624;23.406;2023-02-13T12:38:14;96471.41;;;6.92;62.84
3428;BME280;1727;42.624;23.406;2023-02-13T12:41:13;96471.31;;;6.95;62.41
3428;BME280;1727;42.624;23.406;2023-02-13T12:44:05;96477.84;;;7.04;63.02
3428;BME280;1727;42.624;23.406;2023-02-13T12:46:42;96472.97;;;7.15;63.50
3428;BME280;1727;42.624;23.406;2023-02-13T12:52:18;96454.16;;;7.27;60.07
3428;BME280;1727;42.624;23.406;2023-02-13T12:54:58;96446.03;;;7.33;60.79
3428;BME280;1727;42.624;23.406;2023-02-13T12:57:38;96445.66;;;7.41;61.66
3428;BME280;1727;42.624;23.406;2023-02-13T13:00:30;96445.44;;;7.45;60.73
3428;BME280;1727;42.624;23.406;2023-02-13T13:03:10;96439.22;;;7.48;60.56
3428;BME280;1727;42.624;23.406;2023-02-13T13:06:25;96443.53;;;7.49;60.87
3428;BME280;1727;42.624;23.406;2023-02-13T13:09:24;96445.22;;;7.50;60.58
3428;BME280;1727;42.624;23.406;2023-02-13T13:12:27;96432.53;;;7.42;58.94
3428;BME280;1727;42.624;23.406;2023-02-13T13:15:00;96436.91;;;7.42;58.66
3428;BME280;1727;42.624;23.406;2023-02-13T13:17:37;96436.97;;;7.40;58.85
3428;BME280;1727;42.624;23.406;2023-02-13T13:23:10;96429.00;;;7.43;59.03
3428;BME280;1727;42.624;23.406;2023-02-13T13:25:48;96420.41;;;7.41;58.66
3428;BME280;1727;42.624;23.406;2023-02-13T13:28:21;96421.84;;;7.47;58.81
3428;BME280;1727;42.624;23.406;2023-02-13T13:30:49;96415.78;;;7.46;58.38
3428;BME280;1727;42.624;23.406;2023-02-13T13:33:18;96415.72;;;7.48;58.57
3428;BME280;1727;42.624;23.406;2023-02-13T13:35:53;96414.88;;;7.47;58.61
3428;BME280;1727;42.624;23.406;2023-02-13T13:38:32;96406.97;;;7.49;58.64
3428;BME280;1727;42.624;23.406;2023-02-13T13:41:07;96406.03;;;7.50;57.83
3428;BME280;1727;42.624;23.406;2023-02-13T13:43:47;96408.03;;;7.45;58.93
3428;BME280;1727;42.624;23.406;2023-02-13T13:46:22;96407.88;;;7.48;58.39
3428;BME280;1727;42.624;23.406;2023-02-13T13:48:58;96414.69;;;7.52;57.76
3428;BME280;1727;42.624;23.406;2023-02-13T13:51:32;96405.00;;;7.54;58.00
3428;BME280;1727;42.624;23.406;2023-02-13T13:54:22;96399.53;;;7.59;57.88
3428;BME280;1727;42.624;23.406;2023-02-13T13:57:07;96397.84;;;7.58;58.51
3428;BME280;1727;42.624;23.406;2023-02-13T14:02:45;96400.94;;;7.66;58.44